sensor_id;sensor_type;location;lat;lon;timestamp;P1;durP1;ratioP1;P2;durP2;ratioP2
60665;SDS011;59128;44.642;21.188;2023-06-05T00:00:07;5.95;;;3.80;;
60665;SDS011;59128;44.642;21.188;2023-06-05T00:02:34;4.40;;;4.00;;
60665;SDS011;59128;44.642;21.188;2023-06-05T00:05:00;6.28;;;3.60;;
60665;SDS011;59128;44.642;21.188;2023-06-05T00:07:28;5.97;;;3.70;;
60665;SDS011;59128;44.642;21.188;2023-06-05T00:09:54;4.80;;;3.30;;
60665;SDS011;59128;44.642;21.188;2023-06-05T00:12:20;5.53;;;3.50;;
60665;SDS011;59128;44.642;21.188;2023-06-05T00:14:46;5.13;;;3.42;;
60665;SDS011;59128;44.642;21.188;2023-06-05T00:17:12;9.13;;;3.50;;
60665;SDS011;59128;44.642;21.188;2023-06-05T00:19:38;4.63;;;3.60;;
60665;SDS011;59128;44.642;21.188;2023-06-05T00:22:05;4.47;;;3.15;;
60665;SDS011;59128;44.642;21.188;2023-06-05T00:24:31;6.72;;;3.53;;
60665;SDS011;59128;44.642;21.188;2023-06-05T00:26:57;7.20;;;3.23;;
60665;SDS011;59128;44.642;21.188;2023-06-05T00:29:23;5.68;;;3.35;;
60665;SDS011;59128;44.642;21.188;2023-06-05T00:31:49;6.00;;;3.25;;
60665;SDS011;59128;44.642;21.188;2023-06-05T00:34:15;5.22;;;3.30;;
60665;SDS011;59128;44.642;21.188;2023-06-05T00:36:41;5.27;;;3.33;;
60665;SDS011;59128;44.642;21.188;2023-06-05T00:39:07;5.43;;;3.40;;
60665;SDS011;59128;44.642;21.188;2023-06-05T00:41:35;5.10;;;3.40;;
60665;SDS011;59128;44.642;21.188;2023-06-05T00:44:01;5.93;;;3.55;;
60665;SDS011;59128;44.642;21.188;2023-06-05T00:46:27;4.72;;;3.08;;
60665;SDS011;59128;44.642;21.188;2023-06-05T00:48:53;4.93;;;3.17;;
60665;SDS011;59128;44.642;21.188;2023-06-05T00:51:19;5.55;;;3.45;;
60665;SDS011;59128;44.642;21.188;2023-06-05T00:53:45;4.72;;;3.42;;
60665;SDS011;59128;44.642;21.188;2023-06-05T00:56:12;5.00;;;3.13;;
60665;SDS011;59128;44.642;21.188;2023-06-05T00:58:38;4.82;;;3.20;;
60665;SDS011;59128;44.642;21.188;2023-06-05T01:01:05;5.35;;;3.30;;
60665;SDS011;59128;44.642;21.188;2023-06-05T01:03:31;5.43;;;3.30;;
60665;SDS011;59128;44.642;21.188;2023-06-05T01:06:00;6.13;;;3.10;;
60665;SDS011;59128;44.642;21.188;2023-06-05T01:08:30;5.07;;;3.28;;
60665;SDS011;59128;44.642;21.188;2023-06-05T01:11:03;4.82;;;3.00;;
60665;SDS011;59128;44.642;21.188;2023-06-05T01:13:31;4.90;;;3.28;;
60665;SDS011;59128;44.642;21.188;2023-06-05T01:15:57;6.18;;;3.40;;
60665;SDS011;59128;44.642;21.188;2023-06-05T01:18:25;3.47;;;3.08;;
60665;SDS011;59128;44.642;21.188;2023-06-05T01:20:51;5.07;;;3.22;;
60665;SDS011;59128;44.642;21.188;2023-06-05T01:23:21;5.45;;;3.00;;
60665;SDS011;59128;44.642;21.188;2023-06-05T01:25:50;7.13;;;3.42;;
60665;SDS011;59128;44.642;21.188;2023-06-05T01:28:25;5.63;;;3.13;;
60665;SDS011;59128;44.642;21.188;2023-06-05T01:31:09;4.75;;;2.83;;
60665;SDS011;59128;44.642;21.188;2023-06-05T01:33:57;6.88;;;3.30;;
60665;SDS011;59128;44.642;21.188;2023-06-05T01:36:26;4.25;;;3.20;;
60665;SDS011;59128;44.642;21.188;2023-06-05T01:38:53;4.72;;;3.10;;
60665;SDS011;59128;44.642;21.188;2023-06-05T01:41:20;5.65;;;3.17;;
60665;SDS011;59128;44.642;21.188;2023-06-05T01:43:46;7.07;;;3.33;;
60665;SDS011;59128;44.642;21.188;2023-06-05T01:46:17;4.32;;;3.15;;
60665;SDS011;59128;44.642;21.188;2023-06-05T01:48:43;4.45;;;3.20;;
60665;SDS011;59128;44.642;21.188;2023-06-05T01:51:10;4.30;;;2.85;;
60665;SDS011;59128;44.642;21.188;2023-06-05T01:53:36;5.55;;;3.05;;
60665;SDS011;59128;44.642;21.188;2023-06-05T01:56:02;6.23;;;3.10;;
60665;SDS011;59128;44.642;21.188;2023-06-05T01:58:28;3.67;;;3.08;;
60665;SDS011;59128;44.642;21.188;2023-06-05T02:00:54;6.50;;;3.20;;
60665;SDS011;59128;44.642;21.188;2023-06-05T02:03:23;5.88;;;3.05;;
60665;SDS011;59128;44.642;21.188;2023-06-05T02:05:49;5.22;;;3.00;;
60665;SDS011;59128;44.642;21.188;2023-06-05T02:08:19;5.80;;;3.20;;
60665;SDS011;59128;44.642;21.188;2023-06-05T02:10:50;4.28;;;3.17;;
60665;SDS011;59128;44.642;21.188;2023-06-05T02:13:18;4.45;;;3.17;;
60665;SDS011;59128;44.642;21.188;2023-06-05T02:15:49;6.43;;;3.03;;
60665;SDS011;59128;44.642;21.188;2023-06-05T02:18:21;5.13;;;3.15;;
60665;SDS011;59128;44.642;21.188;2023-06-05T02:20:52;4.85;;;3.10;;
60665;SDS011;59128;44.642;21.188;2023-06-05T02:23:20;5.20;;;3.10;;
60665;SDS011;59128;44.642;21.188;2023-06-05T02:25:46;3.88;;;2.88;;
60665;SDS011;59128;44.642;21.188;2023-06-05T02:28:12;4.93;;;3.17;;
60665;SDS011;59128;44.642;21.188;2023-06-05T02:30:38;3.47;;;2.90;;
60665;SDS011;59128;44.642;21.188;2023-06-05T02:33:04;5.22;;;3.35;;
60665;SDS011;59128;44.642;21.188;2023-06-05T02:35:30;4.55;;;2.88;;
60665;SDS011;59128;44.642;21.188;2023-06-05T02:37:56;5.07;;;3.10;;
60665;SDS011;59128;44.642;21.188;2023-06-05T02:40:22;4.60;;;3.10;;
60665;SDS011;59128;44.642;21.188;2023-06-05T02:42:48;5.80;;;3.03;;
60665;SDS011;59128;44.642;21.188;2023-06-05T02:45:15;4.90;;;3.15;;
60665;SDS011;59128;44.642;21.188;2023-06-05T02:47:41;5.97;;;2.92;;
60665;SDS011;59128;44.642;21.188;2023-06-05T02:50:07;4.17;;;2.87;;
60665;SDS011;59128;44.642;21.188;2023-06-05T02:52:33;5.70;;;3.00;;
60665;SDS011;59128;44.642;21.188;2023-06-05T02:55:01;4.35;;;2.90;;
60665;SDS011;59128;44.642;21.188;2023-06-05T02:57:28;4.63;;;2.88;;
60665;SDS011;59128;44.642;21.188;2023-06-05T02:59:54;7.05;;;3.15;;
60665;SDS011;59128;44.642;21.188;2023-06-05T03:02:20;7.03;;;3.25;;
60665;SDS011;59128;44.642;21.188;2023-06-05T03:04:47;3.95;;;2.80;;
60665;SDS011;59128;44.642;21.188;2023-06-05T03:07:18;4.68;;;2.97;;
60665;SDS011;59128;44.642;21.188;2023-06-05T03:09:44;4.68;;;3.00;;
60665;SDS011;59128;44.642;21.188;2023-06-05T03:12:10;7.00;;;3.20;;
60665;SDS011;59128;44.642;21.188;2023-06-05T03:14:36;5.68;;;2.67;;
60665;SDS011;59128;44.642;21.188;2023-06-05T03:17:02;6.50;;;2.60;;
60665;SDS011;59128;44.642;21.188;2023-06-05T03:19:28;4.05;;;2.60;;
60665;SDS011;59128;44.642;21.188;2023-06-05T03:21:55;5.05;;;2.97;;
60665;SDS011;59128;44.642;21.188;2023-06-05T03:24:21;5.85;;;3.05;;
60665;SDS011;59128;44.642;21.188;2023-06-05T03:26:49;4.00;;;2.95;;
60665;SDS011;59128;44.642;21.188;2023-06-05T03:29:15;4.85;;;3.05;;
60665;SDS011;59128;44.642;21.188;2023-06-05T03:31:41;7.18;;;3.40;;
60665;SDS011;59128;44.642;21.188;2023-06-05T03:34:08;5.90;;;3.15;;
60665;SDS011;59128;44.642;21.188;2023-06-05T03:36:34;5.65;;;2.83;;
60665;SDS011;59128;44.642;21.188;2023-06-05T03:39:02;5.55;;;3.13;;
60665;SDS011;59128;44.642;21.188;2023-06-05T03:41:29;3.75;;;2.80;;
60665;SDS011;59128;44.642;21.188;2023-06-05T03:43:55;4.50;;;2.80;;
60665;SDS011;59128;44.642;21.188;2023-06-05T03:46:22;5.25;;;2.88;;
60665;SDS011;59128;44.642;21.188;2023-06-05T03:48:48;6.43;;;3.20;;
60665;SDS011;59128;44.642;21.188;2023-06-05T03:51:15;4.88;;;3.00;;
60665;SDS011;59128;44.642;21.188;2023-06-05T03:53:45;5.30;;;2.88;;
60665;SDS011;59128;44.642;21.188;2023-06-05T03:56:11;4.13;;;3.05;;
60665;SDS011;59128;44.642;21.188;2023-06-05T03:58:40;4.73;;;2.80;;
60665;SDS011;59128;44.642;21.188;2023-06-05T04:01:06;4.75;;;2.80;;
60665;SDS011;59128;44.642;21.188;2023-06-05T04:03:33;4.57;;;3.07;;
60665;SDS011;59128;44.642;21.188;2023-06-05T04:06:02;5.80;;;2.83;;
60665;SDS011;59128;44.642;21.188;2023-06-05T04:08:28;6.10;;;3.35;;
60665;SDS011;59128;44.642;21.188;2023-06-05T04:10:54;4.82;;;3.00;;
60665;SDS011;59128;44.642;21.188;2023-06-05T04:13:20;4.88;;;3.13;;
60665;SDS011;59128;44.642;21.188;2023-06-05T04:15:47;6.20;;;3.45;;
60665;SDS011;59128;44.642;21.188;2023-06-05T04:18:14;4.85;;;3.33;;
60665;SDS011;59128;44.642;21.188;2023-06-05T04:20:40;4.63;;;3.17;;
60665;SDS011;59128;44.642;21.188;2023-06-05T04:23:06;5.32;;;3.00;;
60665;SDS011;59128;44.642;21.188;2023-06-05T04:25:32;7.18;;;3.30;;
60665;SDS011;59128;44.642;21.188;2023-06-05T04:27:58;4.72;;;3.30;;
60665;SDS011;59128;44.642;21.188;2023-06-05T04:30:24;6.90;;;3.53;;
60665;SDS011;59128;44.642;21.188;2023-06-05T04:32:50;6.57;;;3.50;;
60665;SDS011;59128;44.642;21.188;2023-06-05T04:35:22;5.78;;;3.10;;
60665;SDS011;59128;44.642;21.188;2023-06-05T04:37:48;4.13;;;2.92;;
60665;SDS011;59128;44.642;21.188;2023-06-05T04:40:16;5.27;;;3.37;;
60665;SDS011;59128;44.642;21.188;2023-06-05T04:42:43;5.22;;;3.10;;
60665;SDS011;59128;44.642;21.188;2023-06-05T04:45:09;6.40;;;3.10;;
60665;SDS011;59128;44.642;21.188;2023-06-05T04:47:36;5.35;;;3.22;;
60665;SDS011;59128;44.642;21.188;2023-06-05T04:50:03;5.78;;;3.35;;
60665;SDS011;59128;44.642;21.188;2023-06-05T04:52:30;4.85;;;3.42;;
60665;SDS011;59128;44.642;21.188;2023-06-05T04:54:56;5.95;;;3.55;;
60665;SDS011;59128;44.642;21.188;2023-06-05T04:57:28;5.78;;;3.55;;
60665;SDS011;59128;44.642;21.188;2023-06-05T04:59:54;6.28;;;3.60;;
60665;SDS011;59128;44.642;21.188;2023-06-05T05:02:22;6.07;;;3.63;;
60665;SDS011;59128;44.642;21.188;2023-06-05T05:04:48;5.80;;;3.28;;
60665;SDS011;59128;44.642;21.188;2023-06-05T05:07:14;6.20;;;3.43;;
60665;SDS011;59128;44.642;21.188;2023-06-05T05:09:42;6.18;;;3.50;;
60665;SDS011;59128;44.642;21.188;2023-06-05T05:12:08;5.70;;;3.42;;
60665;SDS011;59128;44.642;21.188;2023-06-05T05:14:37;6.63;;;3.75;;
60665;SDS011;59128;44.642;21.188;2023-06-05T05:17:05;6.57;;;3.45;;
60665;SDS011;59128;44.642;21.188;2023-06-05T05:19:31;8.30;;;3.72;;
60665;SDS011;59128;44.642;21.188;2023-06-05T05:21:57;6.65;;;3.60;;
60665;SDS011;59128;44.642;21.188;2023-06-05T05:24:23;3.78;;;3.03;;
60665;SDS011;59128;44.642;21.188;2023-06-05T05:26:50;5.70;;;3.58;;
60665;SDS011;59128;44.642;21.188;2023-06-05T05:29:17;5.80;;;3.30;;
60665;SDS011;59128;44.642;21.188;2023-06-05T05:31:43;5.40;;;3.50;;
60665;SDS011;59128;44.642;21.188;2023-06-05T05:34:09;6.65;;;3.25;;
60665;SDS011;59128;44.642;21.188;2023-06-05T05:36:35;5.17;;;3.40;;
60665;SDS011;59128;44.642;21.188;2023-06-05T05:39:02;4.90;;;3.20;;
60665;SDS011;59128;44.642;21.188;2023-06-05T05:41:28;5.45;;;3.45;;
60665;SDS011;59128;44.642;21.188;2023-06-05T05:43:54;4.85;;;3.50;;
60665;SDS011;59128;44.642;21.188;2023-06-05T05:46:20;4.80;;;3.50;;
60665;SDS011;59128;44.642;21.188;2023-06-05T05:48:46;4.18;;;3.50;;
60665;SDS011;59128;44.642;21.188;2023-06-05T05:51:12;3.88;;;3.20;;
60665;SDS011;59128;44.642;21.188;2023-06-05T05:53:38;4.28;;;3.22;;
60665;SDS011;59128;44.642;21.188;2023-06-05T05:56:05;5.90;;;3.50;;
60665;SDS011;59128;44.642;21.188;2023-06-05T05:58:31;4.10;;;3.63;;
60665;SDS011;59128;44.642;21.188;2023-06-05T06:00:57;4.53;;;3.53;;
60665;SDS011;59128;44.642;21.188;2023-06-05T06:03:24;4.10;;;3.70;;
60665;SDS011;59128;44.642;21.188;2023-06-05T06:05:54;6.20;;;3.80;;
60665;SDS011;59128;44.642;21.188;2023-06-05T06:08:21;6.00;;;3.50;;
60665;SDS011;59128;44.642;21.188;2023-06-05T06:10:47;6.72;;;3.40;;
60665;SDS011;59128;44.642;21.188;2023-06-05T06:13:13;4.65;;;3.45;;
60665;SDS011;59128;44.642;21.188;2023-06-05T06:15:39;4.60;;;3.50;;
60665;SDS011;59128;44.642;21.188;2023-06-05T06:18:06;4.00;;;3.13;;
60665;SDS011;59128;44.642;21.188;2023-06-05T06:20:32;6.20;;;3.60;;
60665;SDS011;59128;44.642;21.188;2023-06-05T06:22:59;4.23;;;3.67;;
60665;SDS011;59128;44.642;21.188;2023-06-05T06:25:25;4.45;;;3.40;;
60665;SDS011;59128;44.642;21.188;2023-06-05T06:27:54;4.88;;;3.50;;
60665;SDS011;59128;44.642;21.188;2023-06-05T06:30:20;4.60;;;3.80;;
60665;SDS011;59128;44.642;21.188;2023-06-05T06:32:47;5.75;;;3.75;;
60665;SDS011;59128;44.642;21.188;2023-06-05T06:35:13;5.35;;;4.10;;
60665;SDS011;59128;44.642;21.188;2023-06-05T06:37:39;4.60;;;3.80;;
60665;SDS011;59128;44.642;21.188;2023-06-05T06:40:06;5.45;;;3.47;;
60665;SDS011;59128;44.642;21.188;2023-06-05T06:42:36;8.07;;;4.23;;
60665;SDS011;59128;44.642;21.188;2023-06-05T06:45:02;4.13;;;3.70;;
60665;SDS011;59128;44.642;21.188;2023-06-05T06:47:29;4.85;;;3.65;;
60665;SDS011;59128;44.642;21.188;2023-06-05T06:49:55;4.75;;;3.60;;
60665;SDS011;59128;44.642;21.188;2023-06-05T06:52:24;4.82;;;3.55;;
60665;SDS011;59128;44.642;21.188;2023-06-05T06:54:50;4.85;;;3.67;;
60665;SDS011;59128;44.642;21.188;2023-06-05T06:57:16;4.40;;;3.03;;
60665;SDS011;59128;44.642;21.188;2023-06-05T06:59:42;5.72;;;3.33;;
60665;SDS011;59128;44.642;21.188;2023-06-05T07:02:13;4.55;;;3.20;;
60665;SDS011;59128;44.642;21.188;2023-06-05T07:04:41;4.53;;;2.95;;
60665;SDS011;59128;44.642;21.188;2023-06-05T07:07:09;5.90;;;3.47;;
60665;SDS011;59128;44.642;21.188;2023-06-05T07:09:36;5.03;;;3.10;;
60665;SDS011;59128;44.642;21.188;2023-06-05T07:12:02;5.70;;;3.58;;
60665;SDS011;59128;44.642;21.188;2023-06-05T07:14:33;3.92;;;3.45;;
60665;SDS011;59128;44.642;21.188;2023-06-05T07:16:59;6.97;;;3.33;;
60665;SDS011;59128;44.642;21.188;2023-06-05T07:19:26;6.65;;;3.53;;
60665;SDS011;59128;44.642;21.188;2023-06-05T07:21:54;3.45;;;2.90;;
60665;SDS011;59128;44.642;21.188;2023-06-05T07:24:20;4.90;;;3.30;;
60665;SDS011;59128;44.642;21.188;2023-06-05T07:26:49;3.40;;;2.72;;
60665;SDS011;59128;44.642;21.188;2023-06-05T07:29:17;5.82;;;3.28;;
60665;SDS011;59128;44.642;21.188;2023-06-05T07:31:43;4.35;;;3.00;;
60665;SDS011;59128;44.642;21.188;2023-06-05T07:34:10;4.32;;;2.95;;
60665;SDS011;59128;44.642;21.188;2023-06-05T07:36:37;4.57;;;3.50;;
60665;SDS011;59128;44.642;21.188;2023-06-05T07:39:04;6.10;;;4.25;;
60665;SDS011;59128;44.642;21.188;2023-06-05T07:41:30;3.70;;;3.40;;
60665;SDS011;59128;44.642;21.188;2023-06-05T07:43:56;4.20;;;3.08;;
60665;SDS011;59128;44.642;21.188;2023-06-05T07:46:23;5.43;;;2.85;;
60665;SDS011;59128;44.642;21.188;2023-06-05T07:48:49;4.35;;;2.95;;
60665;SDS011;59128;44.642;21.188;2023-06-05T07:51:15;3.72;;;3.00;;
60665;SDS011;59128;44.642;21.188;2023-06-05T07:53:43;3.65;;;3.30;;
60665;SDS011;59128;44.642;21.188;2023-06-05T07:56:12;3.17;;;2.78;;
60665;SDS011;59128;44.642;21.188;2023-06-05T07:58:38;3.45;;;2.85;;
60665;SDS011;59128;44.642;21.188;2023-06-05T08:01:06;3.03;;;2.83;;
60665;SDS011;59128;44.642;21.188;2023-06-05T08:03:33;3.72;;;2.72;;
60665;SDS011;59128;44.642;21.188;2023-06-05T08:05:59;3.70;;;3.10;;
60665;SDS011;59128;44.642;21.188;2023-06-05T08:08:26;3.85;;;2.97;;
60665;SDS011;59128;44.642;21.188;2023-06-05T08:10:52;2.78;;;2.58;;
60665;SDS011;59128;44.642;21.188;2023-06-05T08:13:18;3.95;;;2.55;;
60665;SDS011;59128;44.642;21.188;2023-06-05T08:15:45;3.92;;;2.40;;
60665;SDS011;59128;44.642;21.188;2023-06-05T08:18:11;7.97;;;3.17;;
60665;SDS011;59128;44.642;21.188;2023-06-05T08:20:37;3.35;;;2.97;;
60665;SDS011;59128;44.642;21.188;2023-06-05T08:23:03;3.20;;;2.90;;
60665;SDS011;59128;44.642;21.188;2023-06-05T08:25:30;6.00;;;2.88;;
60665;SDS011;59128;44.642;21.188;2023-06-05T08:27:56;4.30;;;2.78;;
60665;SDS011;59128;44.642;21.188;2023-06-05T08:30:22;3.88;;;2.85;;
60665;SDS011;59128;44.642;21.188;2023-06-05T08:32:48;4.47;;;2.78;;
60665;SDS011;59128;44.642;21.188;2023-06-05T08:35:14;4.70;;;2.60;;
60665;SDS011;59128;44.642;21.188;2023-06-05T08:37:41;2.40;;;2.20;;
60665;SDS011;59128;44.642;21.188;2023-06-05T08:40:07;4.05;;;2.70;;
60665;SDS011;59128;44.642;21.188;2023-06-05T08:42:35;3.28;;;2.50;;
60665;SDS011;59128;44.642;21.188;2023-06-05T08:45:03;3.15;;;2.53;;
60665;SDS011;59128;44.642;21.188;2023-06-05T08:47:29;3.83;;;2.88;;
60665;SDS011;59128;44.642;21.188;2023-06-05T08:49:56;3.50;;;2.50;;
60665;SDS011;59128;44.642;21.188;2023-06-05T08:52:22;4.50;;;2.70;;
60665;SDS011;59128;44.642;21.188;2023-06-05T08:54:49;3.30;;;2.63;;
60665;SDS011;59128;44.642;21.188;2023-06-05T08:57:15;4.32;;;2.67;;
60665;SDS011;59128;44.642;21.188;2023-06-05T08:59:42;3.35;;;2.47;;
60665;SDS011;59128;44.642;21.188;2023-06-05T09:02:09;4.53;;;2.45;;
60665;SDS011;59128;44.642;21.188;2023-06-05T09:04:35;5.15;;;2.67;;
60665;SDS011;59128;44.642;21.188;2023-06-05T09:07:02;3.50;;;2.78;;
60665;SDS011;59128;44.642;21.188;2023-06-05T09:09:29;4.40;;;2.67;;
60665;SDS011;59128;44.642;21.188;2023-06-05T09:12:00;4.28;;;2.85;;
60665;SDS011;59128;44.642;21.188;2023-06-05T09:14:27;3.95;;;2.85;;
60665;SDS011;59128;44.642;21.188;2023-06-05T09:16:53;4.68;;;2.97;;
60665;SDS011;59128;44.642;21.188;2023-06-05T09:19:19;4.88;;;3.20;;
60665;SDS011;59128;44.642;21.188;2023-06-05T09:21:54;2.90;;;2.50;;
60665;SDS011;59128;44.642;21.188;2023-06-05T09:24:23;3.78;;;3.05;;
60665;SDS011;59128;44.642;21.188;2023-06-05T09:27:01;3.28;;;2.85;;
60665;SDS011;59128;44.642;21.188;2023-06-05T09:31:58;4.28;;;3.05;;
60665;SDS011;59128;44.642;21.188;2023-06-05T09:34:32;4.15;;;3.03;;
60665;SDS011;59128;44.642;21.188;2023-06-05T09:36:59;4.60;;;2.53;;
60665;SDS011;59128;44.642;21.188;2023-06-05T09:39:26;3.00;;;2.80;;
60665;SDS011;59128;44.642;21.188;2023-06-05T09:41:53;4.00;;;2.83;;
60665;SDS011;59128;44.642;21.188;2023-06-05T09:44:20;4.63;;;2.97;;
60665;SDS011;59128;44.642;21.188;2023-06-05T09:46:56;4.70;;;3.22;;
60665;SDS011;59128;44.642;21.188;2023-06-05T09:49:26;4.00;;;2.60;;
60665;SDS011;59128;44.642;21.188;2023-06-05T09:51:54;5.68;;;2.90;;
60665;SDS011;59128;44.642;21.188;2023-06-05T09:54:20;8.50;;;3.25;;
60665;SDS011;59128;44.642;21.188;2023-06-05T09:56:48;2.85;;;2.63;;
60665;SDS011;59128;44.642;21.188;2023-06-05T09:59:16;5.18;;;3.00;;
60665;SDS011;59128;44.642;21.188;2023-06-05T10:01:45;3.25;;;2.70;;
60665;SDS011;59128;44.642;21.188;2023-06-05T10:04:11;3.08;;;2.80;;
60665;SDS011;59128;44.642;21.188;2023-06-05T10:06:40;4.00;;;2.90;;
60665;SDS011;59128;44.642;21.188;2023-06-05T10:09:07;5.95;;;2.75;;
60665;SDS011;59128;44.642;21.188;2023-06-05T10:11:34;3.35;;;2.70;;
60665;SDS011;59128;44.642;21.188;2023-06-05T10:14:01;4.93;;;3.08;;
60665;SDS011;59128;44.642;21.188;2023-06-05T10:16:28;4.25;;;2.88;;
60665;SDS011;59128;44.642;21.188;2023-06-05T10:18:55;3.53;;;2.70;;
60665;SDS011;59128;44.642;21.188;2023-06-05T10:21:22;3.25;;;2.67;;
60665;SDS011;59128;44.642;21.188;2023-06-05T10:23:49;4.38;;;2.65;;
60665;SDS011;59128;44.642;21.188;2023-06-05T10:26:25;3.63;;;3.13;;
60665;SDS011;59128;44.642;21.188;2023-06-05T10:29:03;2.80;;;2.60;;
60665;SDS011;59128;44.642;21.188;2023-06-05T10:31:45;5.28;;;2.80;;
60665;SDS011;59128;44.642;21.188;2023-06-05T10:34:17;3.20;;;2.75;;
60665;SDS011;59128;44.642;21.188;2023-06-05T10:37:11;4.70;;;2.70;;
60665;SDS011;59128;44.642;21.188;2023-06-05T10:39:46;7.05;;;2.65;;
60665;SDS011;59128;44.642;21.188;2023-06-05T10:42:21;5.63;;;2.70;;
60665;SDS011;59128;44.642;21.188;2023-06-05T10:44:47;3.85;;;2.88;;
60665;SDS011;59128;44.642;21.188;2023-06-05T10:52:42;2.70;;;2.50;;
60665;SDS011;59128;44.642;21.188;2023-06-05T10:55:08;3.53;;;2.47;;
60665;SDS011;59128;44.642;21.188;2023-06-05T11:00:20;2.95;;;2.50;;
60665;SDS011;59128;44.642;21.188;2023-06-05T11:02:47;6.40;;;2.72;;
60665;SDS011;59128;44.642;21.188;2023-06-05T11:05:14;4.47;;;2.58;;
60665;SDS011;59128;44.642;21.188;2023-06-05T11:07:41;4.25;;;2.90;;
60665;SDS011;59128;44.642;21.188;2023-06-05T11:15:15;4.82;;;2.28;;
60665;SDS011;59128;44.642;21.188;2023-06-05T11:17:45;5.10;;;2.60;;
60665;SDS011;59128;44.642;21.188;2023-06-05T11:27:59;2.53;;;2.33;;
60665;SDS011;59128;44.642;21.188;2023-06-05T11:30:39;5.13;;;2.80;;
60665;SDS011;59128;44.642;21.188;2023-06-05T11:33:11;7.80;;;3.30;;
60665;SDS011;59128;44.642;21.188;2023-06-05T11:35:39;5.75;;;5.00;;
60665;SDS011;59128;44.642;21.188;2023-06-05T11:38:09;5.10;;;2.90;;
60665;SDS011;59128;44.642;21.188;2023-06-05T11:40:35;4.03;;;2.95;;
60665;SDS011;59128;44.642;21.188;2023-06-05T11:43:06;3.60;;;2.40;;
60665;SDS011;59128;44.642;21.188;2023-06-05T11:45:32;5.07;;;2.80;;
60665;SDS011;59128;44.642;21.188;2023-06-05T11:50:35;3.40;;;3.10;;
60665;SDS011;59128;44.642;21.188;2023-06-05T11:53:04;4.32;;;3.65;;
60665;SDS011;59128;44.642;21.188;2023-06-05T11:55:31;3.85;;;3.00;;
60665;SDS011;59128;44.642;21.188;2023-06-05T11:58:27;4.72;;;4.18;;
60665;SDS011;59128;44.642;21.188;2023-06-05T12:01:10;5.00;;;4.53;;
60665;SDS011;59128;44.642;21.188;2023-06-05T12:03:42;3.97;;;3.60;;
60665;SDS011;59128;44.642;21.188;2023-06-05T12:06:09;3.97;;;2.78;;
60665;SDS011;59128;44.642;21.188;2023-06-05T12:08:38;6.25;;;5.10;;
60665;SDS011;59128;44.642;21.188;2023-06-05T12:11:18;6.30;;;5.00;;
60665;SDS011;59128;44.642;21.188;2023-06-05T12:13:46;7.55;;;4.95;;
60665;SDS011;59128;44.642;21.188;2023-06-05T12:16:12;7.60;;;5.80;;
60665;SDS011;59128;44.642;21.188;2023-06-05T12:18:39;4.55;;;3.58;;
60665;SDS011;59128;44.642;21.188;2023-06-05T12:21:05;5.40;;;4.47;;
60665;SDS011;59128;44.642;21.188;2023-06-05T12:23:31;5.35;;;3.03;;
60665;SDS011;59128;44.642;21.188;2023-06-05T12:26:04;4.28;;;2.90;;
60665;SDS011;59128;44.642;21.188;2023-06-05T12:28:30;4.15;;;3.50;;
60665;SDS011;59128;44.642;21.188;2023-06-05T12:30:57;4.47;;;3.08;;
60665;SDS011;59128;44.642;21.188;2023-06-05T12:33:23;10.70;;;3.10;;
60665;SDS011;59128;44.642;21.188;2023-06-05T12:36:05;5.28;;;3.17;;
60665;SDS011;59128;44.642;21.188;2023-06-05T12:38:36;6.25;;;3.40;;
60665;SDS011;59128;44.642;21.188;2023-06-05T12:41:02;3.95;;;3.53;;
60665;SDS011;59128;44.642;21.188;2023-06-05T12:43:31;7.93;;;3.72;;
60665;SDS011;59128;44.642;21.188;2023-06-05T12:45:57;3.80;;;3.28;;
60665;SDS011;59128;44.642;21.188;2023-06-05T12:48:23;4.65;;;3.47;;
60665;SDS011;59128;44.642;21.188;2023-06-05T12:50:50;6.07;;;3.85;;
60665;SDS011;59128;44.642;21.188;2023-06-05T12:53:16;5.05;;;3.67;;
60665;SDS011;59128;44.642;21.188;2023-06-05T12:55:43;3.85;;;3.55;;
60665;SDS011;59128;44.642;21.188;2023-06-05T12:58:09;6.22;;;4.47;;
60665;SDS011;59128;44.642;21.188;2023-06-05T13:00:35;5.15;;;3.42;;
60665;SDS011;59128;44.642;21.188;2023-06-05T13:03:02;6.00;;;3.65;;
60665;SDS011;59128;44.642;21.188;2023-06-05T13:05:29;8.45;;;4.30;;
60665;SDS011;59128;44.642;21.188;2023-06-05T13:07:57;5.07;;;3.92;;
60665;SDS011;59128;44.642;21.188;2023-06-05T13:10:23;5.07;;;3.50;;
60665;SDS011;59128;44.642;21.188;2023-06-05T13:12:49;5.18;;;3.67;;
60665;SDS011;59128;44.642;21.188;2023-06-05T13:15:15;5.03;;;3.50;;
60665;SDS011;59128;44.642;21.188;2023-06-05T13:17:41;6.03;;;4.40;;
60665;SDS011;59128;44.642;21.188;2023-06-05T13:20:08;5.65;;;4.70;;
60665;SDS011;59128;44.642;21.188;2023-06-05T13:22:38;4.88;;;4.38;;
60665;SDS011;59128;44.642;21.188;2023-06-05T13:25:05;5.70;;;4.60;;
60665;SDS011;59128;44.642;21.188;2023-06-05T13:27:32;6.50;;;4.63;;
60665;SDS011;59128;44.642;21.188;2023-06-05T13:29:58;6.80;;;4.88;;
60665;SDS011;59128;44.642;21.188;2023-06-05T13:32:24;6.75;;;5.18;;
60665;SDS011;59128;44.642;21.188;2023-06-05T13:34:50;6.15;;;5.10;;
60665;SDS011;59128;44.642;21.188;2023-06-05T13:37:17;6.47;;;5.65;;
60665;SDS011;59128;44.642;21.188;2023-06-05T13:39:44;7.78;;;5.10;;
60665;SDS011;59128;44.642;21.188;2023-06-05T13:42:10;5.10;;;4.70;;
60665;SDS011;59128;44.642;21.188;2023-06-05T13:44:36;5.90;;;4.53;;
60665;SDS011;59128;44.642;21.188;2023-06-05T13:47:03;5.65;;;4.57;;
60665;SDS011;59128;44.642;21.188;2023-06-05T13:49:29;5.68;;;5.05;;
60665;SDS011;59128;44.642;21.188;2023-06-05T13:51:56;6.13;;;4.93;;
60665;SDS011;59128;44.642;21.188;2023-06-05T13:54:22;5.55;;;4.68;;
60665;SDS011;59128;44.642;21.188;2023-06-05T13:56:48;7.35;;;5.22;;
60665;SDS011;59128;44.642;21.188;2023-06-05T13:59:16;5.20;;;4.70;;
60665;SDS011;59128;44.642;21.188;2023-06-05T14:01:43;7.68;;;5.38;;
60665;SDS011;59128;44.642;21.188;2023-06-05T14:04:09;6.18;;;4.85;;
60665;SDS011;59128;44.642;21.188;2023-06-05T14:06:35;6.68;;;4.70;;
60665;SDS011;59128;44.642;21.188;2023-06-05T14:09:04;5.28;;;4.72;;
60665;SDS011;59128;44.642;21.188;2023-06-05T14:11:31;7.57;;;4.85;;
60665;SDS011;59128;44.642;21.188;2023-06-05T14:13:57;5.88;;;5.05;;
60665;SDS011;59128;44.642;21.188;2023-06-05T14:16:24;5.78;;;5.07;;
60665;SDS011;59128;44.642;21.188;2023-06-05T14:18:50;5.70;;;4.95;;
60665;SDS011;59128;44.642;21.188;2023-06-05T14:21:16;5.55;;;4.85;;
60665;SDS011;59128;44.642;21.188;2023-06-05T14:23:43;12.68;;;5.35;;
60665;SDS011;59128;44.642;21.188;2023-06-05T14:26:10;6.68;;;4.65;;
60665;SDS011;59128;44.642;21.188;2023-06-05T14:28:36;7.05;;;4.20;;
60665;SDS011;59128;44.642;21.188;2023-06-05T14:31:03;6.03;;;4.13;;
60665;SDS011;59128;44.642;21.188;2023-06-05T14:33:29;7.30;;;4.03;;
60665;SDS011;59128;44.642;21.188;2023-06-05T14:35:55;4.47;;;4.07;;
60665;SDS011;59128;44.642;21.188;2023-06-05T14:38:23;4.28;;;3.88;;
60665;SDS011;59128;44.642;21.188;2023-06-05T14:40:50;4.30;;;3.90;;
60665;SDS011;59128;44.642;21.188;2023-06-05T14:43:17;8.23;;;3.92;;
60665;SDS011;59128;44.642;21.188;2023-06-05T14:45:43;7.57;;;3.58;;
60665;SDS011;59128;44.642;21.188;2023-06-05T14:48:09;4.68;;;4.00;;
60665;SDS011;59128;44.642;21.188;2023-06-05T14:50:36;6.32;;;3.90;;
60665;SDS011;59128;44.642;21.188;2023-06-05T14:53:02;5.90;;;3.33;;
60665;SDS011;59128;44.642;21.188;2023-06-05T14:55:28;4.30;;;3.30;;
60665;SDS011;59128;44.642;21.188;2023-06-05T14:57:54;4.43;;;3.60;;
60665;SDS011;59128;44.642;21.188;2023-06-05T15:00:20;4.03;;;3.50;;